Time;durP1;ratioP1;P1;durP2;ratioP2;P2;SDS_P1;SDS_P2;PMS_P1;PMS_P2;Temp;Humidity;BMP_temperature;BMP_pressure;BME280_temperature;BME280_humidity;BME280_pressure;Samples;Min_cycle;Max_cycle;Signal;HPM_P1;HPM_P2
2023/08/29 00:00:40;;;;;;;2.72;1.20;;;17.70;99.90;;;;;;5054242;28;20705;-64
2023/08/29 00:03:06;;;;;;;1.55;1.20;;;17.70;99.90;;;;;;5055382;28;20017;-64
2023/08/29 00:05:31;;;;;;;2.58;1.33;;;17.60;99.90;;;;;;5055967;28;20107;-63
2023/08/29 00:07:57;;;;;;;2.65;1.40;;;17.60;99.90;;;;;;5054962;28;20025;-64
2023/08/29 00:10:23;;;;;;;1.50;1.40;;;17.60;99.90;;;;;;5057560;28;20504;-64
2023/08/29 00:12:49;;;;;;;2.53;1.40;;;17.60;99.90;;;;;;5039758;28;20047;-64
2023/08/29 00:15:15;;;;;;;1.50;1.30;;;17.50;99.90;;;;;;5057662;28;20562;-64
2023/08/29 00:17:41;;;;;;;2.92;1.65;;;17.50;99.90;;;;;;5054127;28;20033;-64
2023/08/29 00:20:07;;;;;;;1.50;1.33;;;17.50;99.90;;;;;;5056894;28;20040;-64
2023/08/29 00:22:33;;;;;;;1.33;1.23;;;17.50;99.90;;;;;;5054172;28;20039;-63
2023/08/29 00:24:58;;;;;;;1.85;1.40;;;17.50;99.90;;;;;;5054721;28;20032;-64
2023/08/29 00:27:24;;;;;;;1.55;1.45;;;17.50;99.90;;;;;;5054615;28;20564;-63
2023/08/29 00:29:50;;;;;;;1.77;1.38;;;17.50;99.90;;;;;;5040009;28;20029;-64
2023/08/29 00:32:16;;;;;;;2.05;1.60;;;17.50;99.90;;;;;;5053682;28;20041;-63
2023/08/29 00:34:42;;;;;;;2.03;1.60;;;17.40;99.90;;;;;;5037663;28;20131;-64
2023/08/29 00:37:08;;;;;;;1.63;1.35;;;17.40;99.90;;;;;;5053347;28;20032;-64
2023/08/29 00:39:33;;;;;;;2.22;1.60;;;17.50;99.90;;;;;;5055703;28;20403;-63
2023/08/29 00:42:00;;;;;;;1.45;1.30;;;17.40;99.90;;;;;;5052595;28;20697;-64
2023/08/29 00:44:26;;;;;;;1.65;1.55;;;17.50;99.90;;;;;;5055734;28;20028;-63
2023/08/29 00:46:53;;;;;;;1.52;1.30;;;17.50;99.90;;;;;;5052765;28;20029;-63
2023/08/29 00:49:22;;;;;;;3.22;1.67;;;17.50;99.90;;;;;;5056001;28;20021;-64
2023/08/29 00:51:48;;;;;;;2.60;1.50;;;17.40;99.90;;;;;;5050659;28;20029;-64
2023/08/29 00:54:16;;;;;;;1.65;1.50;;;17.50;99.90;;;;;;5043346;28;20528;-64
2023/08/29 00:56:42;;;;;;;1.75;1.55;;;17.40;99.90;;;;;;5036783;28;20040;-64
2023/08/29 00:59:08;;;;;;;4.35;1.65;;;17.40;99.90;;;;;;5043018;28;20029;-64
2023/08/29 01:01:36;;;;;;;2.67;1.50;;;17.40;99.90;;;;;;5037570;28;20032;-64
2023/08/29 01:04:02;;;;;;;2.25;1.52;;;17.40;99.90;;;;;;5041303;28;20035;-64
2023/08/29 01:06:30;;;;;;;2.67;2.25;;;17.40;99.90;;;;;;5037721;28;20025;-64
2023/08/29 01:09:00;;;;;;;2.72;2.05;;;17.40;99.90;;;;;;5050973;28;20157;-64
2023/08/29 01:11:44;;;;;;;4.68;2.00;;;17.40;99.90;;;;;;5039041;28;20029;-64
2023/08/29 01:14:37;;;;;;;3.83;1.98;;;17.40;99.90;;;;;;5040279;28;20032;-64
2023/08/29 01:17:08;;;;;;;2.70;1.80;;;17.30;99.90;;;;;;5043222;28;20075;-64
2023/08/29 01:19:39;;;;;;;4.22;1.67;;;17.30;99.90;;;;;;5028668;28;20028;-64
2023/08/29 01:22:11;;;;;;;3.88;1.95;;;17.30;99.90;;;;;;5054207;28;20100;-64
2023/08/29 01:25:15;;;;;;;3.85;2.17;;;17.30;99.90;;;;;;4997658;28;1152273;-64
2023/08/29 01:27:42;;;;;;;2.53;1.83;;;17.30;99.90;;;;;;5042050;28;20044;-64
2023/08/29 01:30:09;;;;;;;3.00;2.00;;;17.20;99.90;;;;;;5054759;28;20601;-63
2023/08/29 01:32:36;;;;;;;2.35;1.88;;;17.20;99.90;;;;;;5053267;28;20029;-64
2023/08/29 01:35:02;;;;;;;4.78;1.90;;;17.20;99.90;;;;;;5051190;28;20107;-64
2023/08/29 01:37:28;;;;;;;2.50;1.80;;;17.20;99.90;;;;;;5038004;28;20481;-64
2023/08/29 01:39:54;;;;;;;2.20;1.80;;;17.20;99.90;;;;;;5041204;28;20412;-64
2023/08/29 01:42:20;;;;;;;1.83;1.73;;;17.20;99.90;;;;;;5054908;28;20760;-64
2023/08/29 01:44:45;;;;;;;1.98;1.83;;;17.20;99.90;;;;;;5040540;28;20832;-64
2023/08/29 01:47:11;;;;;;;3.15;2.05;;;17.20;99.90;;;;;;5055903;28;20111;-64
2023/08/29 01:49:38;;;;;;;4.60;1.75;;;17.30;99.90;;;;;;5052608;28;20052;-64
2023/08/29 01:52:05;;;;;;;2.00;1.63;;;17.20;99.90;;;;;;5053980;28;20072;-64
2023/08/29 01:54:31;;;;;;;1.75;1.25;;;17.20;99.90;;;;;;5040484;28;20803;-64
2023/08/29 01:57:00;;;;;;;1.33;1.23;;;17.20;99.90;;;;;;5048982;28;20025;-64
2023/08/29 01:59:27;;;;;;;1.92;1.63;;;17.20;99.90;;;;;;5041276;28;20824;-64
2023/08/29 02:01:53;;;;;;;1.52;1.42;;;17.20;99.90;;;;;;5038735;28;20029;-64
2023/08/29 02:04:19;;;;;;;2.15;1.33;;;17.20;99.90;;;;;;5040744;28;20024;-64
2023/08/29 02:06:44;;;;;;;2.60;1.60;;;17.20;99.90;;;;;;5052884;28;20645;-64
2023/08/29 02:09:11;;;;;;;1.88;1.67;;;17.30;99.90;;;;;;5039906;28;20828;-64
2023/08/29 02:11:36;;;;;;;1.83;1.48;;;17.30;99.90;;;;;;5053796;28;20503;-64
2023/08/29 02:14:02;;;;;;;4.22;1.80;;;17.30;99.90;;;;;;5038345;28;20025;-64
2023/08/29 02:16:30;;;;;;;1.98;1.38;;;17.20;99.90;;;;;;5040224;28;20585;-64
2023/08/29 02:18:55;;;;;;;1.40;1.30;;;17.30;99.90;;;;;;5042153;28;20037;-64
2023/08/29 02:21:21;;;;;;;2.72;1.38;;;17.30;99.90;;;;;;5045605;28;20029;-64
2023/08/29 02:23:47;;;;;;;3.80;1.40;;;17.30;99.90;;;;;;5055607;28;20043;-64
2023/08/29 02:26:13;;;;;;;1.45;1.35;;;17.30;99.90;;;;;;5059535;28;20037;-64
2023/08/29 02:28:39;;;;;;;1.73;1.23;;;17.30;99.90;;;;;;5042355;28;20052;-64
2023/08/29 02:31:07;;;;;;;2.67;1.50;;;17.30;99.90;;;;;;5057892;28;20057;-64
2023/08/29 02:33:37;;;;;;;5.85;1.50;;;17.30;99.90;;;;;;5055497;28;20045;-64
2023/08/29 02:36:07;;;;;;;1.50;1.40;;;17.30;99.90;;;;;;5042471;28;20035;-64
2023/08/29 02:38:33;;;;;;;2.55;1.70;;;17.30;99.90;;;;;;5039691;28;20458;-64
2023/08/29 02:40:59;;;;;;;3.10;1.55;;;17.30;99.90;;;;;;5044604;28;20029;-64
2023/08/29 02:43:26;;;;;;;2.20;1.63;;;17.30;99.90;;;;;;5039942;28;20028;-64
2023/08/29 02:45:54;;;;;;;1.85;1.40;;;17.20;99.90;;;;;;5043914;28;20111;-64
2023/08/29 02:48:19;;;;;;;2.88;1.60;;;17.20;99.90;;;;;;5058522;28;20021;-64
2023/08/29 02:50:48;;;;;;;2.30;1.20;;;17.20;99.90;;;;;;5056039;28;20033;-64
2023/08/29 02:53:18;;;;;;;1.95;1.65;;;17.20;99.90;;;;;;5041878;28;20041;-64
2023/08/29 02:55:44;;;;;;;1.60;1.50;;;17.20;99.90;;;;;;5043243;28;20029;-64
2023/08/29 02:58:10;;;;;;;3.35;1.50;;;17.20;99.90;;;;;;5042868;28;20377;-64
2023/08/29 03:00:36;;;;;;;2.63;1.23;;;17.20;99.90;;;;;;5055958;28;20028;-64
2023/08/29 03:03:04;;;;;;;2.17;1.30;;;17.20;99.90;;;;;;5058098;28;20391;-64
2023/08/29 03:05:31;;;;;;;1.80;1.02;;;17.20;99.90;;;;;;5043937;28;20020;-64
2023/08/29 03:07:57;;;;;;;1.95;1.50;;;17.20;99.90;;;;;;5057508;28;20032;-64
2023/08/29 03:10:24;;;;;;;4.53;1.27;;;17.20;99.90;;;;;;5044595;28;20500;-64
2023/08/29 03:12:53;;;;;;;2.42;1.20;;;17.20;99.90;;;;;;5026186;28;20033;-64
2023/08/29 03:15:20;;;;;;;2.50;1.27;;;17.20;99.90;;;;;;5044506;28;20395;-64
2023/08/29 03:17:46;;;;;;;3.58;1.13;;;17.10;99.90;;;;;;5040562;28;20026;-64
2023/08/29 03:20:12;;;;;;;2.45;1.27;;;17.10;99.90;;;;;;5056666;28;20412;-64
2023/08/29 03:22:38;;;;;;;1.98;1.52;;;17.10;99.90;;;;;;5041189;28;20025;-64
2023/08/29 03:25:05;;;;;;;1.42;1.00;;;17.10;99.90;;;;;;5041903;28;20033;-64
2023/08/29 03:27:31;;;;;;;1.17;1.00;;;17.10;99.90;;;;;;5042342;28;20136;-64
2023/08/29 03:29:58;;;;;;;1.58;1.40;;;17.10;99.90;;;;;;5041084;28;20033;-64
2023/08/29 03:32:24;;;;;;;1.70;1.15;;;17.10;99.90;;;;;;5057877;28;20539;-64
2023/08/29 03:34:55;;;;;;;1.02;0.93;;;17.10;99.90;;;;;;5040826;28;20217;-64
2023/08/29 03:37:21;;;;;;;1.20;1.10;;;17.10;99.90;;;;;;5058324;28;20166;-64
2023/08/29 03:39:46;;;;;;;3.45;1.25;;;17.10;99.90;;;;;;5054401;28;20123;-64
2023/08/29 03:42:12;;;;;;;1.98;1.23;;;17.10;99.90;;;;;;5046752;28;20028;-63
2023/08/29 03:44:38;;;;;;;2.70;1.10;;;17.10;99.90;;;;;;5041123;28;20035;-64
2023/08/29 03:47:04;;;;;;;1.30;1.10;;;17.10;99.90;;;;;;5044201;28;20032;-64
2023/08/29 03:49:30;;;;;;;1.52;1.17;;;17.10;99.90;;;;;;5038893;28;20032;-64
2023/08/29 03:51:56;;;;;;;1.00;0.90;;;17.00;99.90;;;;;;5043213;28;20485;-64
2023/08/29 03:54:22;;;;;;;1.88;1.13;;;17.00;99.90;;;;;;5052606;28;20021;-64
2023/08/29 03:56:48;;;;;;;1.67;1.00;;;17.10;99.90;;;;;;5040437;28;20047;-64
2023/08/29 03:59:15;;;;;;;0.68;0.68;;;17.10;99.90;;;;;;5040089;28;20392;-64
2023/08/29 04:01:41;;;;;;;1.15;1.05;;;17.00;99.90;;;;;;5042111;28;20024;-64
2023/08/29 04:04:06;;;;;;;4.13;1.10;;;17.10;99.90;;;;;;5041535;28;20025;-64
2023/08/29 04:06:35;;;;;;;2.35;0.90;;;17.10;99.90;;;;;;5042340;28;20115;-64
2023/08/29 04:09:02;;;;;;;0.98;0.80;;;17.00;99.90;;;;;;5041165;28;20024;-64
2023/08/29 04:11:28;;;;;;;1.27;1.17;;;17.10;99.90;;;;;;5042737;28;20495;-64
2023/08/29 04:13:53;;;;;;;0.95;0.85;;;17.10;99.90;;;;;;5038372;28;20041;-64
2023/08/29 04:16:19;;;;;;;1.27;0.90;;;17.10;99.90;;;;;;5043224;28;20055;-64
2023/08/29 04:18:45;;;;;;;0.70;0.63;;;17.10;99.90;;;;;;5054911;28;20029;-64
2023/08/29 04:21:11;;;;;;;0.90;0.90;;;17.10;99.90;;;;;;5041503;28;20036;-64
2023/08/29 04:23:36;;;;;;;0.73;0.73;;;17.10;99.90;;;;;;5038566;28;20481;-64
2023/08/29 04:26:05;;;;;;;2.70;1.00;;;17.00;99.90;;;;;;5038537;28;20119;-64
2023/08/29 04:28:31;;;;;;;1.65;0.85;;;17.10;99.90;;;;;;5055479;28;20036;-64
2023/08/29 04:31:07;;;;;;;1.73;0.93;;;17.10;99.90;;;;;;5054274;28;20049;-64
2023/08/29 04:33:33;;;;;;;1.30;0.90;;;17.10;99.90;;;;;;5054817;28;20074;-64
2023/08/29 04:35:58;;;;;;;1.38;1.10;;;17.10;99.90;;;;;;5053840;28;20025;-64
2023/08/29 04:38:24;;;;;;;1.45;1.05;;;17.10;99.90;;;;;;5041087;28;20028;-64
2023/08/29 04:40:53;;;;;;;3.95;1.13;;;17.10;99.90;;;;;;5037510;28;20040;-64
2023/08/29 04:43:19;;;;;;;1.77;1.20;;;17.00;99.90;;;;;;5041892;28;20036;-64
2023/08/29 04:45:46;;;;;;;2.17;1.10;;;17.10;99.90;;;;;;5053401;28;20033;-64
2023/08/29 04:48:12;;;;;;;1.30;1.00;;;17.00;99.90;;;;;;5043454;28;20518;-64
2023/08/29 04:50:39;;;;;;;2.28;1.00;;;17.10;99.90;;;;;;5039226;28;20064;-64
2023/08/29 04:53:05;;;;;;;1.00;0.90;;;17.10;99.90;;;;;;5042086;28;20121;-64
2023/08/29 04:55:32;;;;;;;1.10;0.95;;;17.10;99.90;;;;;;5054250;28;20032;-64
2023/08/29 04:57:58;;;;;;;1.05;0.90;;;17.10;99.90;;;;;;5040624;28;20558;-64
2023/08/29 05:00:24;;;;;;;2.10;1.02;;;17.10;99.90;;;;;;5039798;28;20255;-64
2023/08/29 05:02:50;;;;;;;3.60;1.08;;;17.10;99.90;;;;;;5040612;28;20031;-64
2023/08/29 05:05:16;;;;;;;1.23;0.77;;;17.10;99.90;;;;;;5038664;28;20032;-64
2023/08/29 05:07:43;;;;;;;1.33;0.80;;;17.10;99.90;;;;;;5041631;28;20452;-64
2023/08/29 05:10:09;;;;;;;1.55;0.98;;;17.10;99.90;;;;;;5039542;28;20029;-64
2023/08/29 05:12:35;;;;;;;4.05;0.75;;;17.10;99.90;;;;;;5040656;28;20142;-64
2023/08/29 05:15:01;;;;;;;3.72;0.90;;;17.10;99.90;;;;;;5044061;28;20037;-64
2023/08/29 05:17:27;;;;;;;1.55;1.00;;;17.10;99.90;;;;;;5041292;28;20051;-64
2023/08/29 05:19:54;;;;;;;1.20;1.10;;;17.10;99.90;;;;;;5038845;28;20037;-64
2023/08/29 05:22:20;;;;;;;2.30;0.90;;;17.20;99.90;;;;;;5040977;28;20020;-64
2023/08/29 05:24:46;;;;;;;2.10;1.05;;;17.10;99.90;;;;;;5037946;28;20064;-64
2023/08/29 05:27:12;;;;;;;2.28;1.08;;;17.20;99.90;;;;;;5054483;28;20098;-64
2023/08/29 05:29:38;;;;;;;1.50;0.80;;;17.20;99.90;;;;;;5054079;28;20033;-64
2023/08/29 05:32:05;;;;;;;2.88;1.45;;;17.30;99.90;;;;;;5049764;28;20033;-64
2023/08/29 05:34:30;;;;;;;1.10;0.80;;;17.30;99.90;;;;;;5054243;28;20028;-64
2023/08/29 05:36:56;;;;;;;2.03;1.20;;;17.30;99.90;;;;;;5052769;28;20087;-64
2023/08/29 05:39:23;;;;;;;0.90;0.90;;;17.30;99.90;;;;;;5055720;28;20036;-64
2023/08/29 05:41:50;;;;;;;1.23;0.90;;;17.30;99.90;;;;;;5051902;28;20324;-64
2023/08/29 05:44:16;;;;;;;1.90;1.00;;;17.30;99.90;;;;;;5055715;28;20063;-64
2023/08/29 05:46:41;;;;;;;1.52;1.05;;;17.40;99.90;;;;;;5052187;28;20017;-64
2023/08/29 05:49:07;;;;;;;2.15;1.00;;;17.30;99.90;;;;;;5055315;28;20052;-64
2023/08/29 05:51:33;;;;;;;1.90;1.10;;;17.30;99.90;;;;;;5038630;28;20150;-64
2023/08/29 05:54:00;;;;;;;2.20;1.38;;;17.30;99.90;;;;;;5051615;28;20032;-64
2023/08/29 05:56:25;;;;;;;1.70;0.90;;;17.40;99.90;;;;;;5053545;28;20044;-64
2023/08/29 05:58:51;;;;;;;1.60;1.00;;;17.30;99.90;;;;;;5053277;28;20036;-65
2023/08/29 06:01:17;;;;;;;2.58;1.20;;;17.30;99.90;;;;;;5053607;28;20033;-64
2023/08/29 06:03:43;;;;;;;1.98;0.90;;;17.20;99.90;;;;;;5053685;28;20385;-64
2023/08/29 06:06:09;;;;;;;3.90;1.20;;;17.20;99.90;;;;;;5053131;28;20029;-64
2023/08/29 06:08:35;;;;;;;1.70;0.90;;;17.20;99.90;;;;;;5054893;28;20021;-64
2023/08/29 06:11:03;;;;;;;2.00;0.93;;;17.20;99.90;;;;;;5052180;28;20039;-64
2023/08/29 06:13:29;;;;;;;1.45;0.80;;;17.20;99.90;;;;;;5049149;28;20506;-64
2023/08/29 06:15:55;;;;;;;1.20;1.10;;;17.20;99.90;;;;;;5052007;28;20037;-64
2023/08/29 06:18:21;;;;;;;2.05;1.25;;;17.20;99.90;;;;;;5055986;28;20052;-64
2023/08/29 06:20:47;;;;;;;1.10;0.98;;;17.20;99.90;;;;;;5052066;28;20033;-64
2023/08/29 06:23:13;;;;;;;1.13;1.02;;;17.20;99.90;;;;;;5054087;28;20467;-64
2023/08/29 06:25:39;;;;;;;3.05;1.63;;;17.20;99.90;;;;;;5053186;28;20025;-64
2023/08/29 06:28:05;;;;;;;2.10;1.13;;;17.30;99.90;;;;;;5053896;28;20025;-64
2023/08/29 06:30:31;;;;;;;2.10;1.00;;;17.30;99.90;;;;;;5054798;28;20117;-64
2023/08/29 06:32:57;;;;;;;1.88;1.50;;;17.30;99.90;;;;;;5053570;28;20033;-64
2023/08/29 06:35:23;;;;;;;1.35;1.10;;;17.40;99.90;;;;;;5055257;28;20029;-64
2023/08/29 06:37:49;;;;;;;3.30;1.63;;;17.40;99.90;;;;;;5052674;28;20045;-64
2023/08/29 06:40:15;;;;;;;1.17;1.10;;;17.40;99.90;;;;;;5055576;28;20028;-64
2023/08/29 06:42:41;;;;;;;1.35;0.98;;;17.40;99.90;;;;;;5052234;28;20028;-64
2023/08/29 06:45:08;;;;;;;2.30;1.20;;;17.40;99.90;;;;;;5055013;28;20422;-64
2023/08/29 06:47:34;;;;;;;4.05;1.20;;;17.50;99.90;;;;;;5052274;28;20028;-64
2023/08/29 06:50:00;;;;;;;2.38;1.15;;;17.50;99.90;;;;;;5054110;28;20518;-64
2023/08/29 06:52:27;;;;;;;3.05;0.85;;;17.50;99.90;;;;;;5053123;28;20033;-64
2023/08/29 06:54:53;;;;;;;1.08;0.98;;;17.50;99.90;;;;;;5052873;28;20128;-64
2023/08/29 06:57:18;;;;;;;1.65;1.10;;;17.60;99.90;;;;;;5053356;28;20123;-64
2023/08/29 06:59:44;;;;;;;1.52;1.00;;;17.60;99.90;;;;;;5052642;28;20036;-64
2023/08/29 07:02:10;;;;;;;0.88;0.80;;;17.60;99.90;;;;;;5052930;28;20044;-64
2023/08/29 07:04:36;;;;;;;1.88;1.00;;;17.60;99.90;;;;;;5057016;28;20543;-64
2023/08/29 07:07:02;;;;;;;1.52;1.02;;;17.60;99.90;;;;;;5055725;28;20070;-64
2023/08/29 07:09:30;;;;;;;1.75;0.88;;;17.60;99.90;;;;;;5052621;28;20033;-65
2023/08/29 07:11:57;;;;;;;1.45;1.00;;;17.60;99.90;;;;;;5055334;28;20080;-64
2023/08/29 07:14:23;;;;;;;2.28;1.40;;;17.60;99.90;;;;;;5058597;28;20032;-64
2023/08/29 07:16:48;;;;;;;1.88;1.30;;;17.60;99.90;;;;;;5055237;28;20039;-64
2023/08/29 07:19:14;;;;;;;2.60;1.23;;;17.70;99.90;;;;;;5054923;28;20075;-64
2023/08/29 07:21:40;;;;;;;3.05;1.40;;;17.70;99.90;;;;;;5057661;28;20037;-64
2023/08/29 07:24:06;;;;;;;3.08;1.58;;;17.80;99.90;;;;;;5056234;28;20033;-64
2023/08/29 07:26:32;;;;;;;2.80;1.30;;;17.90;99.90;;;;;;5056806;28;20057;-64
2023/08/29 07:28:57;;;;;;;1.40;1.30;;;17.90;99.90;;;;;;5055310;28;20033;-64
2023/08/29 07:31:23;;;;;;;1.25;1.10;;;17.90;99.90;;;;;;5057859;28;20118;-64
2023/08/29 07:33:49;;;;;;;1.33;1.00;;;17.90;99.90;;;;;;5054489;28;20033;-64
2023/08/29 07:36:15;;;;;;;1.08;1.00;;;17.90;99.90;;;;;;5058148;28;20060;-64
2023/08/29 07:38:42;;;;;;;2.20;1.35;;;18.00;99.90;;;;;;5046329;28;20025;-64
2023/08/29 07:41:07;;;;;;;1.27;1.13;;;18.00;99.90;;;;;;5058018;28;20144;-64
2023/08/29 07:43:33;;;;;;;1.73;1.30;;;18.10;99.90;;;;;;5054204;28;20865;-64
2023/08/29 07:45:59;;;;;;;3.00;1.10;;;18.10;99.90;;;;;;5056908;28;20067;-64
2023/08/29 07:48:25;;;;;;;3.58;1.85;;;18.20;99.90;;;;;;5050540;28;20443;-64
2023/08/29 07:50:51;;;;;;;4.20;1.23;;;18.30;99.90;;;;;;5055643;28;20056;-64
2023/08/29 07:53:17;;;;;;;1.70;1.05;;;18.30;99.90;;;;;;5058158;28;20052;-64
2023/08/29 07:55:44;;;;;;;3.88;1.20;;;18.40;99.90;;;;;;5057314;28;20256;-64
2023/08/29 07:58:10;;;;;;;3.42;1.48;;;18.50;99.90;;;;;;5049249;28;20056;-64
2023/08/29 08:00:36;;;;;;;3.00;1.30;;;18.50;99.90;;;;;;5054818;28;20071;-64
2023/08/29 08:03:03;;;;;;;4.05;1.33;;;18.40;99.90;;;;;;5054265;28;20033;-64
2023/08/29 08:05:29;;;;;;;4.80;1.10;;;18.50;99.90;;;;;;5057896;28;20029;-65
2023/08/29 08:07:56;;;;;;;1.88;1.05;;;18.50;99.90;;;;;;5054684;28;20862;-64
2023/08/29 08:10:22;;;;;;;1.52;1.00;;;18.50;99.90;;;;;;5057869;28;20124;-64
2023/08/29 08:12:49;;;;;;;1.60;1.20;;;18.50;99.90;;;;;;5054231;28;20029;-64
2023/08/29 08:15:16;;;;;;;2.13;1.20;;;18.60;99.90;;;;;;5056202;28;20029;-65
2023/08/29 08:17:42;;;;;;;3.20;1.35;;;18.70;99.90;;;;;;5054723;28;20032;-64
2023/08/29 08:20:09;;;;;;;4.10;1.40;;;18.70;99.90;;;;;;5056453;28;20039;-64
2023/08/29 08:22:37;;;;;;;4.45;1.20;;;18.70;99.90;;;;;;5038097;28;20025;-64
2023/08/29 08:25:03;;;;;;;2.75;1.40;;;18.70;99.90;;;;;;5051599;28;20051;-64
2023/08/29 08:27:31;;;;;;;2.15;1.33;;;18.70;99.90;;;;;;5055998;28;20067;-64
2023/08/29 08:29:57;;;;;;;1.95;1.40;;;18.80;99.90;;;;;;5048793;28;20029;-64
2023/08/29 08:32:24;;;;;;;3.60;1.90;;;18.80;99.90;;;;;;5056171;28;20510;-65
2023/08/29 08:34:49;;;;;;;3.88;1.52;;;18.80;99.90;;;;;;5052051;28;20086;-64
2023/08/29 08:37:15;;;;;;;2.00;1.42;;;18.80;99.90;;;;;;5057398;28;20121;-65
2023/08/29 08:39:41;;;;;;;2.38;1.33;;;18.70;99.90;;;;;;5053845;28;20075;-64
2023/08/29 08:42:11;;;;;;;4.47;1.42;;;18.70;99.90;;;;;;5057140;28;20021;-65
2023/08/29 08:44:38;;;;;;;1.95;1.75;;;18.60;99.90;;;;;;5050650;28;20024;-64
2023/08/29 08:47:05;;;;;;;2.35;1.73;;;18.70;99.90;;;;;;5054665;28;20025;-64
2023/08/29 08:49:31;;;;;;;1.85;1.48;;;18.70;99.90;;;;;;5053702;28;20056;-64
2023/08/29 08:51:58;;;;;;;1.48;1.38;;;18.70;99.90;;;;;;5054674;28;20098;-64
2023/08/29 08:54:27;;;;;;;2.05;1.30;;;18.70;99.90;;;;;;5054174;28;20050;-65
2023/08/29 08:56:57;;;;;;;1.73;1.40;;;18.70;99.90;;;;;;5052586;28;20044;-65
2023/08/29 08:59:24;;;;;;;2.75;1.58;;;18.70;99.90;;;;;;5054435;28;20029;-65
2023/08/29 09:01:50;;;;;;;2.38;1.75;;;18.80;99.90;;;;;;5053791;28;20036;-64
2023/08/29 09:04:16;;;;;;;2.58;1.65;;;18.80;99.90;;;;;;5054459;28;20078;-64
2023/08/29 09:06:42;;;;;;;1.83;1.60;;;18.80;99.90;;;;;;5054260;28;20021;-65
2023/08/29 09:09:18;;;;;;;2.95;1.83;;;18.80;99.90;;;;;;5054565;28;20481;-64
2023/08/29 09:11:54;;;;;;;3.72;1.90;;;18.80;99.90;;;;;;5052662;28;20037;-64
2023/08/29 09:14:21;;;;;;;4.15;2.22;;;18.90;99.90;;;;;;5054420;28;20032;-64
2023/08/29 09:16:52;;;;;;;6.88;1.95;;;18.90;99.90;;;;;;5054047;28;20033;-64
2023/08/29 09:19:20;;;;;;;2.65;1.90;;;18.90;99.90;;;;;;5054555;28;20033;-64
2023/08/29 09:21:45;;;;;;;2.55;2.08;;;18.90;99.90;;;;;;5054034;28;20039;-65
2023/08/29 09:24:12;;;;;;;2.70;1.90;;;18.90;99.90;;;;;;5054018;28;20037;-64
2023/08/29 09:26:40;;;;;;;3.72;2.22;;;18.90;99.90;;;;;;5054012;28;20037;-64
2023/08/29 09:29:19;;;;;;;2.13;1.90;;;18.90;99.90;;;;;;5036693;28;20063;-64
2023/08/29 09:31:48;;;;;;;3.30;2.38;;;19.00;99.90;;;;;;5053281;28;20059;-65
2023/08/29 09:34:29;;;;;;;4.45;2.50;;;19.00;99.90;;;;;;5053904;28;20037;-64
2023/08/29 09:36:56;;;;;;;2.17;1.60;;;19.00;99.90;;;;;;5052771;28;20037;-64
2023/08/29 09:39:22;;;;;;;3.22;2.20;;;19.00;99.90;;;;;;5053868;28;20047;-64
2023/08/29 09:42:19;;;;;;;4.18;2.05;;;19.10;99.90;;;;;;5053863;28;20036;-64
2023/08/29 09:44:48;;;;;;;4.53;2.42;;;19.10;99.90;;;;;;5040181;28;20036;-64
2023/08/29 09:47:25;;;;;;;3.80;2.65;;;19.20;99.90;;;;;;5054731;28;20027;-64
2023/08/29 09:49:51;;;;;;;4.55;2.20;;;19.20;99.90;;;;;;5052508;28;20035;-64
2023/08/29 09:52:18;;;;;;;3.90;2.45;;;19.30;99.90;;;;;;5055360;28;20081;-65
2023/08/29 09:54:49;;;;;;;2.40;2.08;;;19.40;99.90;;;;;;5052460;28;20507;-64
2023/08/29 09:57:21;;;;;;;2.42;1.92;;;19.50;99.90;;;;;;5056036;28;20037;-64
2023/08/29 09:59:50;;;;;;;1.98;1.88;;;19.50;99.90;;;;;;5052563;28;20028;-64
2023/08/29 10:02:20;;;;;;;3.05;1.70;;;19.50;99.90;;;;;;5055826;28;20469;-64
2023/08/29 10:05:03;;;;;;;2.58;2.00;;;19.60;99.90;;;;;;5052343;28;20111;-64
2023/08/29 10:07:42;;;;;;;4.13;1.80;;;19.60;99.90;;;;;;5050896;28;20024;-64
2023/08/29 10:10:09;;;;;;;2.45;1.95;;;19.60;99.90;;;;;;5050177;28;20411;-64
2023/08/29 10:12:36;;;;;;;3.05;2.30;;;19.70;99.90;;;;;;5053986;28;20036;-64
2023/08/29 10:15:04;;;;;;;6.72;2.00;;;19.70;99.90;;;;;;5038607;28;20047;-64
2023/08/29 10:17:35;;;;;;;2.40;1.92;;;19.80;99.90;;;;;;5055122;28;20039;-64
2023/08/29 10:20:09;;;;;;;3.08;2.08;;;19.80;99.90;;;;;;5052239;28;20090;-64
2023/08/29 10:22:37;;;;;;;1.98;1.67;;;19.80;99.90;;;;;;5039695;28;20759;-65
2023/08/29 10:25:03;;;;;;;2.97;1.77;;;19.80;99.90;;;;;;5052422;28;20030;-65
2023/08/29 10:27:31;;;;;;;4.07;1.98;;;19.80;99.90;;;;;;5054430;28;20519;-65
2023/08/29 10:29:57;;;;;;;1.73;1.55;;;19.70;99.90;;;;;;5036689;28;20033;-65
2023/08/29 10:32:25;;;;;;;2.40;1.42;;;19.70;99.90;;;;;;5055054;28;20033;-65
2023/08/29 10:34:51;;;;;;;3.53;1.88;;;19.80;99.90;;;;;;5052365;28;20060;-65
2023/08/29 10:37:18;;;;;;;2.45;1.60;;;19.80;99.90;;;;;;5055602;28;20389;-64
2023/08/29 10:39:44;;;;;;;4.18;1.88;;;19.80;99.90;;;;;;5055683;28;20036;-64
2023/08/29 10:42:13;;;;;;;3.35;1.42;;;19.90;99.90;;;;;;5058070;28;20715;-65
2023/08/29 10:44:40;;;;;;;3.25;1.88;;;19.90;99.90;;;;;;5056081;28;20029;-65
2023/08/29 10:47:31;;;;;;;2.15;1.38;;;20.00;99.90;;;;;;5058122;28;20049;-65
2023/08/29 10:50:07;;;;;;;2.22;1.40;;;20.00;99.90;;;;;;5055578;28;20108;-65
2023/08/29 10:52:41;;;;;;;3.92;1.88;;;20.10;99.90;;;;;;5053886;28;20029;-65
2023/08/29 10:55:27;;;;;;;2.47;1.40;;;20.10;99.90;;;;;;5056210;28;20033;-65
2023/08/29 10:57:58;;;;;;;2.33;1.27;;;20.10;99.90;;;;;;5056486;28;20119;-65
2023/08/29 11:00:51;;;;;;;5.05;1.90;;;20.20;99.90;;;;;;5042303;28;20037;-65
2023/08/29 11:03:38;;;;;;;1.73;1.50;;;20.20;99.90;;;;;;5057933;28;20050;-65
2023/08/29 11:06:03;;;;;;;;;;;20.20;99.90;;;;;;5056947;28;20024;-65
2023/08/29 11:08:29;;;;;;;2.72;1.33;;;20.20;99.90;;;;;;5043111;28;20287;-65
2023/08/29 11:11:18;;;;;;;3.78;1.60;;;20.10;99.90;;;;;;5055781;28;20039;-65
2023/08/29 11:14:06;;;;;;;3.47;1.60;;;20.10;99.90;;;;;;5041023;28;20171;-65
2023/08/29 11:16:36;;;;;;;2.92;1.63;;;20.10;99.90;;;;;;5055281;28;20039;-64
2023/08/29 11:19:12;;;;;;;2.85;1.92;;;20.10;99.90;;;;;;5057185;28;20024;-65
2023/08/29 11:21:38;;;;;;;3.10;1.73;;;20.00;99.90;;;;;;5051991;28;20032;-64
2023/08/29 11:24:05;;;;;;;2.80;1.70;;;20.00;99.90;;;;;;5057666;28;20048;-66
2023/08/29 11:26:35;;;;;;;3.05;1.80;;;20.10;99.90;;;;;;5055505;28;20841;-64
2023/08/29 11:29:05;;;;;;;4.95;2.30;;;20.10;99.90;;;;;;5057510;28;20622;-65
2023/08/29 11:31:32;;;;;;;2.30;1.83;;;20.10;99.90;;;;;;5055357;28;20039;-65
2023/08/29 11:33:58;;;;;;;3.10;2.20;;;20.10;99.90;;;;;;5056279;28;20040;-65
2023/08/29 11:36:31;;;;;;;2.15;1.90;;;20.20;99.80;;;;;;5040717;28;20025;-65
2023/08/29 11:38:57;;;;;;;1.88;1.52;;;20.20;99.90;;;;;;5055453;28;20037;-65
2023/08/29 11:41:28;;;;;;;2.95;2.00;;;20.20;99.90;;;;;;5055398;28;20086;-65
2023/08/29 11:43:56;;;;;;;3.40;2.40;;;20.30;99.90;;;;;;5038965;28;20051;-65
2023/08/29 11:46:22;;;;;;;3.42;2.95;;;20.50;99.90;;;;;;5055874;28;20071;-64
2023/08/29 11:48:48;;;;;;;2.55;2.35;;;20.50;99.90;;;;;;5055235;28;20078;-65
2023/08/29 11:51:15;;;;;;;3.17;2.47;;;20.60;99.90;;;;;;5056366;28;20493;-65
2023/08/29 11:53:41;;;;;;;2.60;2.03;;;20.70;99.90;;;;;;5055205;28;20033;-65
2023/08/29 11:56:10;;;;;;;3.25;2.92;;;20.70;99.90;;;;;;5055792;28;20032;-65
2023/08/29 11:58:37;;;;;;;2.80;2.45;;;20.80;99.80;;;;;;5056511;28;20024;-65
2023/08/29 12:01:04;;;;;;;3.40;2.60;;;20.80;99.30;;;;;;5055166;28;20028;-65
2023/08/29 12:03:33;;;;;;;3.70;2.50;;;20.80;99.30;;;;;;5042784;28;20059;-65
2023/08/29 12:05:59;;;;;;;3.70;3.40;;;20.80;99.30;;;;;;5054559;28;20025;-65
2023/08/29 12:08:37;;;;;;;3.75;2.97;;;20.80;99.40;;;;;;5058243;28;20021;-65
2023/08/29 12:11:05;;;;;;;4.47;3.10;;;20.70;98.80;;;;;;5053926;28;20033;-65
2023/08/29 12:13:31;;;;;;;4.68;2.75;;;20.70;99.30;;;;;;5057083;28;20043;-66
2023/08/29 12:15:57;;;;;;;3.95;3.45;;;20.70;99.30;;;;;;5054576;28;20037;-65
2023/08/29 12:18:24;;;;;;;3.72;3.25;;;20.60;99.50;;;;;;5057547;28;20036;-65
2023/08/29 12:21:11;;;;;;;4.03;3.10;;;20.50;99.10;;;;;;5054262;28;20098;-65
2023/08/29 12:23:37;;;;;;;3.47;3.03;;;20.50;99.30;;;;;;5051707;28;20135;-65
2023/08/29 12:26:03;;;;;;;3.15;2.90;;;20.50;99.70;;;;;;5054134;28;20120;-65
2023/08/29 12:28:29;;;;;;;3.15;2.83;;;20.40;99.90;;;;;;5058527;28;20074;-65
2023/08/29 12:30:56;;;;;;;3.88;3.22;;;20.40;99.90;;;;;;5051247;28;20060;-65
2023/08/29 12:33:22;;;;;;;3.83;3.13;;;20.40;99.90;;;;;;5044280;28;20029;-64
2023/08/29 12:35:49;;;;;;;8.00;2.80;;;20.30;99.80;;;;;;5054136;28;20036;-65
2023/08/29 12:38:15;;;;;;;1.83;1.60;;;20.30;99.50;;;;;;5056633;28;20596;-65
2023/08/29 12:40:41;;;;;;;1.42;1.15;;;20.20;99.30;;;;;;5053955;28;20068;-65
2023/08/29 12:43:09;;;;;;;3.17;1.33;;;20.00;99.80;;;;;;5054784;28;20036;-65
2023/08/29 12:45:35;;;;;;;1.30;1.05;;;19.80;99.90;;;;;;5054493;28;20029;-65
2023/08/29 12:48:02;;;;;;;4.30;1.05;;;19.70;99.90;;;;;;5054610;28;20025;-65
2023/08/29 12:50:30;;;;;;;2.78;1.33;;;19.60;99.90;;;;;;5055904;28;20089;-65